sensor_id;sensor_type;location;lat;lon;timestamp;pressure;altitude;pressure_sealevel;temperature;humidity
33185;BME280;19550;42.872;25.494;2023-05-01T00:02:11;96301.25;;;9.63;100.00
33185;BME280;19550;42.872;25.494;2023-05-01T00:04:38;96300.06;;;9.55;100.00
33185;BME280;19550;42.872;25.494;2023-05-01T00:07:06;96292.75;;;9.60;100.00
33185;BME280;19550;42.872;25.494;2023-05-01T00:09:33;96304.50;;;9.65;100.00
33185;BME280;19550;42.872;25.494;2023-05-01T00:12:00;96303.53;;;9.61;100.00
33185;BME280;19550;42.872;25.494;2023-05-01T00:14:28;96301.22;;;9.54;100.00
33185;BME280;19550;42.872;25.494;2023-05-01T00:16:55;96313.03;;;9.46;100.00
33185;BME280;19550;42.872;25.494;2023-05-01T00:19:22;96317.56;;;9.42;100.00
33185;BME280;19550;42.872;25.494;2023-05-01T00:21:48;96318.38;;;9.43;100.00
33185;BME280;19550;42.872;25.494;2023-05-01T00:24:18;96325.78;;;9.34;100.00
33185;BME280;19550;42.872;25.494;2023-05-01T00:26:46;96323.34;;;9.10;100.00
33185;BME280;19550;42.872;25.494;2023-05-01T00:29:12;96321.03;;;9.03;100.00
33185;BME280;19550;42.872;25.494;2023-05-01T00:31:39;96329.31;;;9.03;100.00
33185;BME280;19550;42.872;25.494;2023-05-01T00:34:07;96324.59;;;9.04;100.00
33185;BME280;19550;42.872;25.494;2023-05-01T00:36:34;96318.25;;;9.03;100.00
33185;BME280;19550;42.872;25.494;2023-05-01T00:39:00;96326.78;;;8.93;100.00
33185;BME280;19550;42.872;25.494;2023-05-01T00:41:28;96319.97;;;8.77;100.00
33185;BME280;19550;42.872;25.494;2023-05-01T00:43:55;96330.28;;;8.85;100.00
33185;BME280;19550;42.872;25.494;2023-05-01T00:46:23;96329.34;;;8.90;100.00
33185;BME280;19550;42.872;25.494;2023-05-01T00:48:50;96328.53;;;8.89;100.00
33185;BME280;19550;42.872;25.494;2023-05-01T00:51:19;96326.34;;;9.00;100.00
33185;BME280;19550;42.872;25.494;2023-05-01T00:53:46;96322.88;;;8.94;100.00
33185;BME280;19550;42.872;25.494;2023-05-01T00:56:14;96331.34;;;8.98;100.00
33185;BME280;19550;42.872;25.494;2023-05-01T00:58:44;96330.34;;;8.94;100.00
33185;BME280;19550;42.872;25.494;2023-05-01T01:01:12;96341.50;;;9.02;100.00
33185;BME280;19550;42.872;25.494;2023-05-01T01:03:39;96335.28;;;8.97;100.00
33185;BME280;19550;42.872;25.494;2023-05-01T01:06:08;96342.97;;;8.86;100.00
33185;BME280;19550;42.872;25.494;2023-05-01T01:08:41;96346.03;;;8.85;100.00
33185;BME280;19550;42.872;25.494;2023-05-01T01:11:14;96342.69;;;8.74;100.00
33185;BME280;19550;42.872;25.494;2023-05-01T01:14:05;96347.63;;;8.77;100.00
33185;BME280;19550;42.872;25.494;2023-05-01T01:16:38;96353.13;;;8.91;100.00
33185;BME280;19550;42.872;25.494;2023-05-01T01:19:24;96358.72;;;8.86;100.00
33185;BME280;19550;42.872;25.494;2023-05-01T01:22:04;96363.03;;;8.78;100.00
33185;BME280;19550;42.872;25.494;2023-05-01T01:24:46;96367.44;;;8.79;100.00
33185;BME280;19550;42.872;25.494;2023-05-01T01:27:33;96374.09;;;8.78;100.00
33185;BME280;19550;42.872;25.494;2023-05-01T01:30:28;96368.50;;;8.69;100.00
33185;BME280;19550;42.872;25.494;2023-05-01T01:33:24;96379.34;;;8.66;
33185;BME280;19550;42.872;25.494;2023-05-01T01:35:57;96372.38;;;8.68;100.00
33185;BME280;19550;42.872;25.494;2023-05-01T01:38:32;96377.69;;;8.65;100.00
33185;BME280;19550;42.872;25.494;2023-05-01T01:41:07;96377.41;;;8.53;100.00
33185;BME280;19550;42.872;25.494;2023-05-01T01:43:38;96375.75;;;8.52;100.00
33185;BME280;19550;42.872;25.494;2023-05-01T01:46:07;96375.59;;;8.48;100.00
33185;BME280;19550;42.872;25.494;2023-05-01T01:48:37;96380.59;;;8.46;100.00
33185;BME280;19550;42.872;25.494;2023-05-01T01:51:12;96377.94;;;8.41;100.00
33185;BME280;19550;42.872;25.494;2023-05-01T01:53:40;96377.81;;;8.46;100.00
33185;BME280;19550;42.872;25.494;2023-05-01T01:56:11;96384.25;;;8.28;100.00
33185;BME280;19550;42.872;25.494;2023-05-01T01:58:41;96384.03;;;8.24;100.00
33185;BME280;19550;42.872;25.494;2023-05-01T02:01:12;96380.13;;;8.12;100.00
33185;BME280;19550;42.872;25.494;2023-05-01T02:03:40;96388.00;;;8.05;100.00
33185;BME280;19550;42.872;25.494;2023-05-01T02:06:08;96385.97;;;8.10;100.00
33185;BME280;19550;42.872;25.494;2023-05-01T02:08:36;96382.69;;;8.08;100.00
33185;BME280;19550;42.872;25.494;2023-05-01T02:11:04;96386.88;;;8.06;100.00
33185;BME280;19550;42.872;25.494;2023-05-01T02:13:33;96396.06;;;8.01;100.00
33185;BME280;19550;42.872;25.494;2023-05-01T02:16:02;96393.13;;;7.97;100.00
33185;BME280;19550;42.872;25.494;2023-05-01T02:18:30;96394.00;;;7.93;100.00
33185;BME280;19550;42.872;25.494;2023-05-01T02:20:59;96391.97;;;7.98;100.00
33185;BME280;19550;42.872;25.494;2023-05-01T02:23:30;96399.31;;;7.76;100.00
33185;BME280;19550;42.872;25.494;2023-05-01T02:25:59;96393.66;;;7.67;100.00
33185;BME280;19550;42.872;25.494;2023-05-01T02:28:29;96395.06;;;7.65;100.00
33185;BME280;19550;42.872;25.494;2023-05-01T02:30:56;96399.56;;;7.61;100.00
33185;BME280;19550;42.872;25.494;2023-05-01T02:33:22;96402.94;;;7.57;100.00
33185;BME280;19550;42.872;25.494;2023-05-01T02:35:50;96407.25;;;7.64;100.00
33185;BME280;19550;42.872;25.494;2023-05-01T02:38:17;96404.38;;;7.69;100.00
33185;BME280;19550;42.872;25.494;2023-05-01T02:40:47;96402.13;;;7.57;100.00
33185;BME280;19550;42.872;25.494;2023-05-01T02:43:17;96406.28;;;7.54;100.00
33185;BME280;19550;42.872;25.494;2023-05-01T02:45:46;96409.47;;;7.62;100.00
33185;BME280;19550;42.872;25.494;2023-05-01T02:48:17;96414.34;;;7.51;100.00
33185;BME280;19550;42.872;25.494;2023-05-01T02:50:46;96415.66;;;7.53;100.00
33185;BME280;19550;42.872;25.494;2023-05-01T02:53:14;96420.41;;;7.34;100.00
33185;BME280;19550;42.872;25.494;2023-05-01T02:55:42;96416.72;;;7.39;100.00
33185;BME280;19550;42.872;25.494;2023-05-01T02:58:15;96416.34;;;7.45;100.00
33185;BME280;19550;42.872;25.494;2023-05-01T03:00:42;96429.09;;;7.41;100.00
33185;BME280;19550;42.872;25.494;2023-05-01T03:03:09;96424.19;;;7.38;100.00
33185;BME280;19550;42.872;25.494;2023-05-01T03:05:36;96433.06;;;7.35;100.00
33185;BME280;19550;42.872;25.494;2023-05-01T03:08:04;96431.56;;;7.43;100.00
33185;BME280;19550;42.872;25.494;2023-05-01T03:10:31;96429.69;;;7.38;100.00
33185;BME280;19550;42.872;25.494;2023-05-01T03:12:58;96441.53;;;7.39;100.00
33185;BME280;19550;42.872;25.494;2023-05-01T03:15:26;96437.66;;;7.40;100.00
33185;BME280;19550;42.872;25.494;2023-05-01T03:17:53;96429.78;;;7.33;100.00
33185;BME280;19550;42.872;25.494;2023-05-01T03:20:20;96439.34;;;7.22;100.00
33185;BME280;19550;42.872;25.494;2023-05-01T03:22:47;96442.66;;;7.19;100.00
33185;BME280;19550;42.872;25.494;2023-05-01T03:25:14;96430.78;;;7.24;100.00
33185;BME280;19550;42.872;25.494;2023-05-01T03:27:40;96438.28;;;7.18;100.00
33185;BME280;19550;42.872;25.494;2023-05-01T03:30:10;96448.06;;;7.10;100.00
33185;BME280;19550;42.872;25.494;2023-05-01T03:32:38;96442.66;;;7.19;100.00
33185;BME280;19550;42.872;25.494;2023-05-01T03:35:06;96446.25;;;7.19;100.00
33185;BME280;19550;42.872;25.494;2023-05-01T03:37:33;96452.75;;;7.10;100.00
33185;BME280;19550;42.872;25.494;2023-05-01T03:40:00;96448.41;;;7.04;100.00
33185;BME280;19550;42.872;25.494;2023-05-01T03:42:27;96453.25;;;7.12;100.00
33185;BME280;19550;42.872;25.494;2023-05-01T03:44:54;96450.19;;;7.13;100.00
33185;BME280;19550;42.872;25.494;2023-05-01T03:47:21;96454.03;;;7.17;100.00
33185;BME280;19550;42.872;25.494;2023-05-01T03:49:49;96448.88;;;7.30;100.00
33185;BME280;19550;42.872;25.494;2023-05-01T03:52:16;96457.50;;;7.23;100.00
33185;BME280;19550;42.872;25.494;2023-05-01T03:54:43;96459.53;;;7.36;100.00
33185;BME280;19550;42.872;25.494;2023-05-01T03:57:10;96454.66;;;7.47;100.00
33185;BME280;19550;42.872;25.494;2023-05-01T03:59:36;96460.16;;;7.66;100.00
33185;BME280;19550;42.872;25.494;2023-05-01T04:02:03;96466.63;;;7.75;100.00
33185;BME280;19550;42.872;25.494;2023-05-01T04:04:30;96461.69;;;7.90;100.00
33185;BME280;19550;42.872;25.494;2023-05-01T04:06:59;96468.75;;;7.96;100.00
33185;BME280;19550;42.872;25.494;2023-05-01T04:09:26;96474.91;;;8.07;100.00
33185;BME280;19550;42.872;25.494;2023-05-01T04:11:54;96474.31;;;8.10;100.00
33185;BME280;19550;42.872;25.494;2023-05-01T04:14:21;96477.00;;;8.29;100.00
33185;BME280;19550;42.872;25.494;2023-05-01T04:16:48;96485.75;;;8.36;100.00
33185;BME280;19550;42.872;25.494;2023-05-01T04:19:15;96483.31;;;8.48;100.00
33185;BME280;19550;42.872;25.494;2023-05-01T04:21:42;96473.69;;;8.59;100.00
33185;BME280;19550;42.872;25.494;2023-05-01T04:24:10;96479.31;;;8.68;100.00
33185;BME280;19550;42.872;25.494;2023-05-01T04:26:37;96480.34;;;8.72;100.00
33185;BME280;19550;42.872;25.494;2023-05-01T04:29:04;96481.88;;;8.78;100.00
33185;BME280;19550;42.872;25.494;2023-05-01T04:31:31;96487.63;;;8.82;100.00
33185;BME280;19550;42.872;25.494;2023-05-01T04:33:59;96484.75;;;9.00;100.00
33185;BME280;19550;42.872;25.494;2023-05-01T04:36:26;96482.56;;;9.11;100.00
33185;BME280;19550;42.872;25.494;2023-05-01T04:38:54;96493.13;;;9.23;100.00
33185;BME280;19550;42.872;25.494;2023-05-01T04:41:22;96488.88;;;9.39;100.00
33185;BME280;19550;42.872;25.494;2023-05-01T04:43:48;96496.13;;;9.48;100.00
33185;BME280;19550;42.872;25.494;2023-05-01T04:46:16;96496.31;;;9.52;100.00
33185;BME280;19550;42.872;25.494;2023-05-01T04:48:43;96494.97;;;9.63;100.00
33185;BME280;19550;42.872;25.494;2023-05-01T04:51:09;96493.28;;;9.76;100.00
33185;BME280;19550;42.872;25.494;2023-05-01T04:53:36;96498.78;;;9.89;100.00
33185;BME280;19550;42.872;25.494;2023-05-01T04:56:03;96495.63;;;10.05;100.00
33185;BME280;19550;42.872;25.494;2023-05-01T04:58:32;96500.28;;;10.18;100.00
33185;BME280;19550;42.872;25.494;2023-05-01T05:00:59;96496.78;;;10.26;100.00
33185;BME280;19550;42.872;25.494;2023-05-01T05:03:25;96507.53;;;10.27;100.00
33185;BME280;19550;42.872;25.494;2023-05-01T05:05:52;96499.25;;;10.27;100.00
33185;BME280;19550;42.872;25.494;2023-05-01T05:08:19;96507.63;;;10.45;100.00
33185;BME280;19550;42.872;25.494;2023-05-01T05:10:46;96513.75;;;10.55;100.00
33185;BME280;19550;42.872;25.494;2023-05-01T05:13:13;96511.50;;;10.66;100.00
33185;BME280;19550;42.872;25.494;2023-05-01T05:15:42;96510.66;;;10.88;100.00
33185;BME280;19550;42.872;25.494;2023-05-01T05:18:08;96521.66;;;11.10;100.00
33185;BME280;19550;42.872;25.494;2023-05-01T05:20:37;96522.34;;;11.24;100.00
33185;BME280;19550;42.872;25.494;2023-05-01T05:23:04;96523.34;;;11.37;100.00
33185;BME280;19550;42.872;25.494;2023-05-01T05:25:31;96519.31;;;11.51;100.00
33185;BME280;19550;42.872;25.494;2023-05-01T05:27:58;96532.56;;;11.72;100.00
33185;BME280;19550;42.872;25.494;2023-05-01T05:30:25;96531.81;;;11.97;100.00
33185;BME280;19550;42.872;25.494;2023-05-01T05:32:53;96537.56;;;12.09;100.00
33185;BME280;19550;42.872;25.494;2023-05-01T05:35:20;96537.22;;;12.28;100.00
33185;BME280;19550;42.872;25.494;2023-05-01T05:37:47;96536.38;;;12.45;100.00
33185;BME280;19550;42.872;25.494;2023-05-01T05:40:15;96542.25;;;12.52;100.00
33185;BME280;19550;42.872;25.494;2023-05-01T05:42:42;96532.72;;;12.70;100.00
33185;BME280;19550;42.872;25.494;2023-05-01T05:45:09;96532.88;;;12.82;100.00
33185;BME280;19550;42.872;25.494;2023-05-01T05:47:36;96542.25;;;13.07;100.00
33185;BME280;19550;42.872;25.494;2023-05-01T05:50:05;96545.81;;;13.25;100.00
33185;BME280;19550;42.872;25.494;2023-05-01T05:52:33;96543.25;;;13.49;100.00
33185;BME280;19550;42.872;25.494;2023-05-01T05:54:59;96546.59;;;13.63;100.00
33185;BME280;19550;42.872;25.494;2023-05-01T05:57:26;96547.00;;;13.82;99.94
33185;BME280;19550;42.872;25.494;2023-05-01T05:59:53;96548.56;;;14.13;98.32
33185;BME280;19550;42.872;25.494;2023-05-01T06:02:20;96548.91;;;14.32;97.16
33185;BME280;19550;42.872;25.494;2023-05-01T06:04:46;96546.53;;;14.43;95.74
33185;BME280;19550;42.872;25.494;2023-05-01T06:07:15;96544.63;;;14.55;95.48
33185;BME280;19550;42.872;25.494;2023-05-01T06:09:41;96550.75;;;14.82;94.77
33185;BME280;19550;42.872;25.494;2023-05-01T06:12:08;96548.72;;;15.03;94.22
33185;BME280;19550;42.872;25.494;2023-05-01T06:14:35;96553.88;;;15.37;93.44
33185;BME280;19550;42.872;25.494;2023-05-01T06:17:02;96551.56;;;15.51;92.35
33185;BME280;19550;42.872;25.494;2023-05-01T06:19:29;96551.00;;;15.58;91.96
33185;BME280;19550;42.872;25.494;2023-05-01T06:21:55;96553.34;;;15.80;91.44
33185;BME280;19550;42.872;25.494;2023-05-01T06:24:24;96551.31;;;16.05;90.20
33185;BME280;19550;42.872;25.494;2023-05-01T06:26:52;96554.56;;;16.19;89.17
33185;BME280;19550;42.872;25.494;2023-05-01T06:29:18;96556.50;;;16.31;87.88
33185;BME280;19550;42.872;25.494;2023-05-01T06:31:45;96551.44;;;16.61;87.01
33185;BME280;19550;42.872;25.494;2023-05-01T06:34:12;96558.09;;;16.84;85.63
33185;BME280;19550;42.872;25.494;2023-05-01T06:36:39;96557.78;;;17.01;86.07
33185;BME280;19550;42.872;25.494;2023-05-01T06:39:06;96560.06;;;17.12;83.92
33185;BME280;19550;42.872;25.494;2023-05-01T06:41:34;96572.19;;;17.31;82.71
33185;BME280;19550;42.872;25.494;2023-05-01T06:44:02;96578.69;;;17.35;79.94
33185;BME280;19550;42.872;25.494;2023-05-01T06:46:29;96575.91;;;17.51;78.91
33185;BME280;19550;42.872;25.494;2023-05-01T06:48:56;96573.16;;;17.67;77.79
33185;BME280;19550;42.872;25.494;2023-05-01T06:51:23;96577.47;;;17.80;77.30
33185;BME280;19550;42.872;25.494;2023-05-01T06:53:50;96573.75;;;17.92;76.00
33185;BME280;19550;42.872;25.494;2023-05-01T06:56:17;96577.44;;;18.11;73.76
33185;BME280;19550;42.872;25.494;2023-05-01T06:58:45;96576.06;;;18.21;73.06
33185;BME280;19550;42.872;25.494;2023-05-01T07:01:12;96579.63;;;18.37;73.75
33185;BME280;19550;42.872;25.494;2023-05-01T07:03:38;96578.97;;;18.44;71.61
33185;BME280;19550;42.872;25.494;2023-05-01T07:06:05;96583.38;;;18.60;72.02
33185;BME280;19550;42.872;25.494;2023-05-01T07:08:32;96579.97;;;18.71;71.50
33185;BME280;19550;42.872;25.494;2023-05-01T07:11:00;96589.72;;;18.57;71.71
33185;BME280;19550;42.872;25.494;2023-05-01T07:13:27;96584.94;;;18.77;70.77
33185;BME280;19550;42.872;25.494;2023-05-01T07:15:55;96583.69;;;18.94;71.22
33185;BME280;19550;42.872;25.494;2023-05-01T07:18:22;96588.69;;;19.04;70.80
33185;BME280;19550;42.872;25.494;2023-05-01T07:20:49;96596.53;;;19.14;69.68
33185;BME280;19550;42.872;25.494;2023-05-01T07:23:16;96598.16;;;18.57;70.17
33185;BME280;19550;42.872;25.494;2023-05-01T07:25:43;96599.19;;;18.34;70.74
33185;BME280;19550;42.872;25.494;2023-05-01T07:28:10;96597.06;;;18.11;70.92
33185;BME280;19550;42.872;25.494;2023-05-01T07:30:37;96602.25;;;17.94;71.98
33185;BME280;19550;42.872;25.494;2023-05-01T07:33:05;96602.25;;;17.78;73.38
33185;BME280;19550;42.872;25.494;2023-05-01T07:35:32;96606.44;;;17.68;75.35
33185;BME280;19550;42.872;25.494;2023-05-01T07:37:59;96611.34;;;17.59;75.96
33185;BME280;19550;42.872;25.494;2023-05-01T07:40:26;96617.25;;;17.54;77.58
33185;BME280;19550;42.872;25.494;2023-05-01T07:42:52;96619.78;;;17.59;78.14
33185;BME280;19550;42.872;25.494;2023-05-01T07:45:19;96612.38;;;17.82;75.73
33185;BME280;19550;42.872;25.494;2023-05-01T07:47:46;96619.50;;;17.96;75.75
33185;BME280;19550;42.872;25.494;2023-05-01T07:50:15;96609.97;;;18.32;74.48
33185;BME280;19550;42.872;25.494;2023-05-01T07:52:42;96619.03;;;18.25;75.02
33185;BME280;19550;42.872;25.494;2023-05-01T07:55:09;96613.19;;;18.14;74.98
33185;BME280;19550;42.872;25.494;2023-05-01T07:57:36;96618.88;;;18.02;75.42
33185;BME280;19550;42.872;25.494;2023-05-01T08:00:04;96613.72;;;17.88;75.47
33185;BME280;19550;42.872;25.494;2023-05-01T08:02:31;96622.41;;;17.83;76.73
33185;BME280;19550;42.872;25.494;2023-05-01T08:04:58;96623.50;;;17.63;75.93
33185;BME280;19550;42.872;25.494;2023-05-01T08:07:26;96622.16;;;17.73;76.61
33185;BME280;19550;42.872;25.494;2023-05-01T08:09:53;96624.03;;;17.69;76.37
33185;BME280;19550;42.872;25.494;2023-05-01T08:12:20;96619.16;;;17.97;75.70
33185;BME280;19550;42.872;25.494;2023-05-01T08:14:47;96622.19;;;18.39;73.79
33185;BME280;19550;42.872;25.494;2023-05-01T08:17:13;96619.53;;;19.00;71.93
33185;BME280;19550;42.872;25.494;2023-05-01T08:19:40;96614.56;;;19.32;71.64
33185;BME280;19550;42.872;25.494;2023-05-01T08:22:07;96614.44;;;19.67;70.36
33185;BME280;19550;42.872;25.494;2023-05-01T08:24:36;96623.72;;;19.49;70.39
33185;BME280;19550;42.872;25.494;2023-05-01T08:27:02;96633.66;;;19.04;72.45
33185;BME280;19550;42.872;25.494;2023-05-01T08:29:29;96637.63;;;18.84;73.39
33185;BME280;19550;42.872;25.494;2023-05-01T08:31:57;96634.34;;;18.62;75.07
33185;BME280;19550;42.872;25.494;2023-05-01T08:34:24;96638.44;;;18.49;75.70
33185;BME280;19550;42.872;25.494;2023-05-01T08:36:51;96639.03;;;18.39;77.90
33185;BME280;19550;42.872;25.494;2023-05-01T08:39:20;96638.34;;;18.11;80.57
33185;BME280;19550;42.872;25.494;2023-05-01T08:41:48;96635.63;;;17.83;85.28
33185;BME280;19550;42.872;25.494;2023-05-01T08:44:15;96641.06;;;17.32;99.34
33185;BME280;19550;42.872;25.494;2023-05-01T08:46:46;96640.16;;;16.73;100.00
33185;BME280;19550;42.872;25.494;2023-05-01T08:49:15;96639.94;;;16.65;100.00
33185;BME280;19550;42.872;25.494;2023-05-01T08:51:44;96641.69;;;16.46;100.00
33185;BME280;19550;42.872;25.494;2023-05-01T08:54:12;96631.53;;;16.53;100.00
33185;BME280;19550;42.872;25.494;2023-05-01T08:56:41;96636.56;;;16.48;100.00
33185;BME280;19550;42.872;25.494;2023-05-01T08:59:12;96637.25;;;16.45;100.00
33185;BME280;19550;42.872;25.494;2023-05-01T09:01:40;96627.59;;;16.42;100.00
33185;BME280;19550;42.872;25.494;2023-05-01T09:04:07;96630.16;;;16.47;100.00
33185;BME280;19550;42.872;25.494;2023-05-01T09:06:34;96618.94;;;16.59;100.00
33185;BME280;19550;42.872;25.494;2023-05-01T09:09:01;96630.75;;;16.93;100.00
33185;BME280;19550;42.872;25.494;2023-05-01T09:11:29;96628.25;;;17.03;100.00
33185;BME280;19550;42.872;25.494;2023-05-01T09:13:56;96627.94;;;17.21;100.00
33185;BME280;19550;42.872;25.494;2023-05-01T09:16:24;96631.56;;;17.21;100.00
33185;BME280;19550;42.872;25.494;2023-05-01T09:18:52;96626.94;;;17.29;100.00
33185;BME280;19550;42.872;25.494;2023-05-01T09:21:20;96626.91;;;17.41;100.00
33185;BME280;19550;42.872;25.494;2023-05-01T09:23:49;96626.53;;;17.42;100.00
33185;BME280;19550;42.872;25.494;2023-05-01T09:26:18;96631.47;;;17.61;100.00
33185;BME280;19550;42.872;25.494;2023-05-01T09:28:46;96633.00;;;18.06;100.00
33185;BME280;19550;42.872;25.494;2023-05-01T09:31:23;96631.25;;;18.17;95.51
33185;BME280;19550;42.872;25.494;2023-05-01T09:33:53;96628.91;;;18.19;100.00
33185;BME280;19550;42.872;25.494;2023-05-01T09:36:22;96627.16;;;18.46;94.74
33185;BME280;19550;42.872;25.494;2023-05-01T09:38:49;96635.28;;;18.67;88.01
33185;BME280;19550;42.872;25.494;2023-05-01T09:41:16;96635.47;;;18.58;85.85
33185;BME280;19550;42.872;25.494;2023-05-01T09:43:48;96630.25;;;18.95;82.56
33185;BME280;19550;42.872;25.494;2023-05-01T09:46:16;96633.28;;;19.25;80.76
33185;BME280;19550;42.872;25.494;2023-05-01T09:48:53;96631.97;;;19.19;77.01
33185;BME280;19550;42.872;25.494;2023-05-01T09:51:23;96627.28;;;19.26;82.74
33185;BME280;19550;42.872;25.494;2023-05-01T09:53:51;96635.28;;;19.24;78.24
33185;BME280;19550;42.872;25.494;2023-05-01T09:56:19;96630.00;;;19.42;78.56
33185;BME280;19550;42.872;25.494;2023-05-01T09:58:47;96636.50;;;19.88;71.23
33185;BME280;19550;42.872;25.494;2023-05-01T10:01:14;96631.69;;;20.34;73.75
33185;BME280;19550;42.872;25.494;2023-05-01T10:03:42;96633.63;;;20.56;69.96
33185;BME280;19550;42.872;25.494;2023-05-01T10:06:11;96628.97;;;20.97;70.79
33185;BME280;19550;42.872;25.494;2023-05-01T10:08:52;96629.16;;;20.82;65.49
33185;BME280;19550;42.872;25.494;2023-05-01T10:11:20;96627.34;;;20.96;65.44
33185;BME280;19550;42.872;25.494;2023-05-01T10:14:04;96627.28;;;21.56;66.42
33185;BME280;19550;42.872;25.494;2023-05-01T10:16:33;96614.47;;;21.29;59.27
33185;BME280;19550;42.872;25.494;2023-05-01T10:19:00;96623.34;;;21.27;63.05
33185;BME280;19550;42.872;25.494;2023-05-01T10:21:29;96622.84;;;21.22;64.38
33185;BME280;19550;42.872;25.494;2023-05-01T10:23:57;96619.09;;;21.44;62.16
33185;BME280;19550;42.872;25.494;2023-05-01T10:26:25;96624.56;;;21.30;61.97
33185;BME280;19550;42.872;25.494;2023-05-01T10:28:54;96626.47;;;21.22;61.02
33185;BME280;19550;42.872;25.494;2023-05-01T10:31:24;96623.00;;;21.02;61.35
33185;BME280;19550;42.872;25.494;2023-05-01T10:33:52;96622.78;;;20.88;59.96
33185;BME280;19550;42.872;25.494;2023-05-01T10:36:21;96619.88;;;21.11;61.22
33185;BME280;19550;42.872;25.494;2023-05-01T10:38:52;96621.75;;;21.00;58.94
33185;BME280;19550;42.872;25.494;2023-05-01T10:44:19;96608.69;;;20.88;59.13
33185;BME280;19550;42.872;25.494;2023-05-01T10:46:46;96615.97;;;21.53;60.23
33185;BME280;19550;42.872;25.494;2023-05-01T10:49:13;96618.69;;;21.83;57.60
33185;BME280;19550;42.872;25.494;2023-05-01T10:51:58;96604.81;;;21.30;57.67
33185;BME280;19550;42.872;25.494;2023-05-01T10:54:27;96616.81;;;21.57;56.60
33185;BME280;19550;42.872;25.494;2023-05-01T10:56:56;96618.50;;;21.28;56.81
33185;BME280;19550;42.872;25.494;2023-05-01T10:59:24;96622.22;;;20.46;61.71
33185;BME280;19550;42.872;25.494;2023-05-01T11:01:51;96619.63;;;19.65;63.55
33185;BME280;19550;42.872;25.494;2023-05-01T11:04:48;96612.06;;;19.92;66.10
33185;BME280;19550;42.872;25.494;2023-05-01T11:07:19;96622.34;;;19.62;66.57
33185;BME280;19550;42.872;25.494;2023-05-01T11:09:49;96633.78;;;19.30;67.06
33185;BME280;19550;42.872;25.494;2023-05-01T11:12:48;96633.06;;;18.95;65.44
33185;BME280;19550;42.872;25.494;2023-05-01T11:15:29;96624.72;;;18.98;66.98
33185;BME280;19550;42.872;25.494;2023-05-01T11:17:57;96629.06;;;18.96;67.50
33185;BME280;19550;42.872;25.494;2023-05-01T11:20:46;96627.97;;;19.00;66.60
33185;BME280;19550;42.872;25.494;2023-05-01T11:23:17;96632.38;;;19.01;66.52
33185;BME280;19550;42.872;25.494;2023-05-01T11:25:46;96632.69;;;19.16;67.04
33185;BME280;19550;42.872;25.494;2023-05-01T11:28:17;96628.78;;;19.20;64.92
33185;BME280;19550;42.872;25.494;2023-05-01T11:30:44;96629.78;;;19.31;64.57
33185;BME280;19550;42.872;25.494;2023-05-01T11:33:11;96625.50;;;19.57;64.21
33185;BME280;19550;42.872;25.494;2023-05-01T11:35:41;96627.56;;;20.05;62.34
33185;BME280;19550;42.872;25.494;2023-05-01T11:38:15;96618.94;;;20.44;60.89
33185;BME280;19550;42.872;25.494;2023-05-01T11:40:43;96624.63;;;21.03;59.31
33185;BME280;19550;42.872;25.494;2023-05-01T11:43:11;96621.91;;;21.44;57.09
33185;BME280;19550;42.872;25.494;2023-05-01T11:45:38;96617.66;;;22.01;56.17
33185;BME280;19550;42.872;25.494;2023-05-01T11:48:13;96614.09;;;22.04;53.97
33185;BME280;19550;42.872;25.494;2023-05-01T11:50:40;96608.94;;;22.20;53.17
33185;BME280;19550;42.872;25.494;2023-05-01T11:53:10;96614.97;;;22.67;53.21
33185;BME280;19550;42.872;25.494;2023-05-01T11:55:37;96612.31;;;22.33;51.75
33185;BME280;19550;42.872;25.494;2023-05-01T11:58:04;96607.19;;;23.18;52.31
33185;BME280;19550;42.872;25.494;2023-05-01T12:00:34;96608.13;;;23.51;50.89
33185;BME280;19550;42.872;25.494;2023-05-01T12:03:03;96614.88;;;23.25;51.59
33185;BME280;19550;42.872;25.494;2023-05-01T12:05:31;96612.00;;;23.21;50.74
33185;BME280;19550;42.872;25.494;2023-05-01T12:08:10;96605.78;;;22.87;51.67
33185;BME280;19550;42.872;25.494;2023-05-01T12:10:39;96614.66;;;22.82;53.46
33185;BME280;19550;42.872;25.494;2023-05-01T12:13:07;96617.34;;;21.69;55.95
33185;BME280;19550;42.872;25.494;2023-05-01T12:15:37;96610.63;;;21.44;58.04
33185;BME280;19550;42.872;25.494;2023-05-01T12:18:05;96617.88;;;21.12;58.79
33185;BME280;19550;42.872;25.494;2023-05-01T12:20:36;96622.47;;;20.63;60.06
33185;BME280;19550;42.872;25.494;2023-05-01T12:23:04;96629.25;;;19.45;61.50
33185;BME280;19550;42.872;25.494;2023-05-01T12:25:31;96633.81;;;19.11;64.39
33185;BME280;19550;42.872;25.494;2023-05-01T12:28:01;96630.13;;;18.88;67.14
33185;BME280;19550;42.872;25.494;2023-05-01T12:30:28;96630.25;;;18.95;66.82
33185;BME280;19550;42.872;25.494;2023-05-01T12:32:57;96630.81;;;18.65;66.40
33185;BME280;19550;42.872;25.494;2023-05-01T12:35:30;96626.78;;;18.47;68.07
33185;BME280;19550;42.872;25.494;2023-05-01T12:37:57;96627.69;;;18.86;65.65
33185;BME280;19550;42.872;25.494;2023-05-01T12:40:25;96635.25;;;19.63;64.17
33185;BME280;19550;42.872;25.494;2023-05-01T12:42:55;96633.75;;;19.92;62.45
33185;BME280;19550;42.872;25.494;2023-05-01T12:45:23;96634.25;;;19.97;61.52
33185;BME280;19550;42.872;25.494;2023-05-01T12:47:51;96636.75;;;19.37;61.83
33185;BME280;19550;42.872;25.494;2023-05-01T12:50:20;96627.88;;;18.97;63.76
33185;BME280;19550;42.872;25.494;2023-05-01T12:52:47;96627.72;;;19.09;63.60
33185;BME280;19550;42.872;25.494;2023-05-01T12:55:14;96623.31;;;19.27;63.15
33185;BME280;19550;42.872;25.494;2023-05-01T12:57:51;96629.09;;;20.26;60.17
33185;BME280;19550;42.872;25.494;2023-05-01T13:00:19;96628.94;;;20.68;58.12